Time;durP1;ratioP1;P1;durP2;ratioP2;P2;SDS_P1;SDS_P2;PMS_P1;PMS_P2;Temp;Humidity;BMP_temperature;BMP_pressure;BME280_temperature;BME280_humidity;BME280_pressure;Samples;Min_cycle;Max_cycle;Signal;HPM_P1;HPM_P2
2021/01/19 06:01:48;;;;;;;;;;;;;;;;;;5065567;28;20399;-55
2021/01/19 06:04:15;;;;;;;0.00;0.00;;;;;;;;;;5082574;28;19908;-55
2021/01/19 06:06:44;;;;;;;0.00;0.00;;;;;;;;;;5085482;28;20525;-56
2021/01/19 06:09:10;;;;;;;0.10;0.10;;;;;;;;;;5083600;28;20717;-56
2021/01/19 06:11:36;;;;;;;0.00;0.00;;;;;;;;;;5085597;28;20066;-55
2021/01/19 06:14:02;;;;;;;0.10;0.00;;;;;;;;;;5083770;28;20024;-57
2021/01/19 06:16:29;;;;;;;0.00;0.00;;;;;;;;;;5079151;28;20394;-55
2021/01/19 06:18:55;;;;;;;0.10;0.10;;;;;;;;;;5072919;28;20023;-54
2021/01/19 06:21:27;;;;;;;0.00;0.00;;;;;;;;;;5068562;28;20477;-56
2021/01/19 06:23:53;;;;;;;0.10;0.10;;;;;;;;;;5070681;28;20072;-55
2021/01/19 06:26:19;;;;;;;2.30;0.52;;;;;;;;;;5082517;28;20024;-55
2021/01/19 06:28:45;;;;;;;0.00;0.00;;;;;;;;;;5076200;28;20056;-56
2021/01/19 06:31:13;;;;;;;0.00;0.00;;;;;;;;;;5072313;28;20119;-56
2021/01/19 06:33:41;;;;;;;0.10;0.10;;;;;;;;;;5071221;28;20807;-55
2021/01/19 06:36:07;;;;;;;0.50;0.20;;;;;;;;;;5068929;28;21115;-55
2021/01/19 06:38:34;;;;;;;5.85;0.95;;;;;;;;;;5072035;28;20047;-55
2021/01/19 06:41:01;;;;;;;0.00;0.00;;;;;;;;;;5072161;28;20060;-54
2021/01/19 06:43:35;;;;;;;0.00;0.00;;;;;;;;;;5069731;28;20390;-55
2021/01/19 06:46:06;;;;;;;0.20;0.20;;;;;;;;;;5072262;28;20066;-52
2021/01/19 06:48:32;;;;;;;0.30;0.30;;;;;;;;;;5069911;28;20032;-56
2021/01/19 06:51:02;;;;;;;0.20;0.20;;;;;;;;;;5069381;28;20037;-55
2021/01/19 06:53:42;;;;;;;1.30;0.30;;;;;;;;;;5071853;28;20035;-56
2021/01/19 06:56:08;;;;;;;0.20;0.10;;;;;;;;;;5072123;28;20031;-54
2021/01/19 06:58:55;;;;;;;1.05;0.17;;;;;;;;;;5068744;28;20025;-55
2021/01/19 07:01:22;;;;;;;0.00;0.00;;;;;;;;;;5068442;28;20045;-55
2021/01/19 07:03:50;;;;;;;0.10;0.10;;;;;;;;;;5068101;28;20386;-56
2021/01/19 07:06:16;;;;;;;0.52;0.20;;;;;;;;;;5052632;28;20505;-56
2021/01/19 07:08:42;;;;;;;0.00;0.00;;;;;;;;;;5071759;28;20111;-54
2021/01/19 07:11:26;;;;;;;0.10;0.10;;;;;;;;;;5067073;28;20044;-56
2021/01/19 07:14:01;;;;;;;0.00;0.00;;;;;;;;;;5070428;28;20060;-53
2021/01/19 07:16:28;;;;;;;0.22;0.22;;;;;;;;;;5067544;28;20028;-54
2021/01/19 07:19:07;;;;;;;0.63;0.13;;;;;;;;;;5061111;28;20021;-50
2021/01/19 07:21:44;;;;;;;0.95;0.22;;;;;;;;;;5056732;28;20017;-55
2021/01/19 07:24:16;;;;;;;1.70;0.63;;;;;;;;;;5069085;28;20040;-52
2021/01/19 07:26:44;;;;;;;0.10;0.10;;;;;;;;;;5069668;28;20016;-54
2021/01/19 07:29:10;;;;;;;0.15;0.15;;;;;;;;;;5059843;28;20041;-54
2021/01/19 07:31:36;;;;;;;0.10;0.10;;;;;;;;;;5059394;28;20796;-53
2021/01/19 07:34:05;;;;;;;0.05;0.05;;;;;;;;;;5056600;28;20626;-52
2021/01/19 07:36:31;;;;;;;0.10;0.10;;;;;;;;;;5067620;28;20032;-53
2021/01/19 07:38:57;;;;;;;0.10;0.10;;;;;;;;;;5069043;28;20024;-55
2021/01/19 07:41:26;;;;;;;0.90;0.75;;;;;;;;;;5064951;28;20047;-54
2021/01/19 07:43:53;;;;;;;0.20;0.20;;;;;;;;;;5062071;28;20032;-55
2021/01/19 07:46:22;;;;;;;0.28;0.28;;;;;;;;;;5068052;28;20032;-53
2021/01/19 07:48:58;;;;;;;0.10;0.10;;;;;;;;;;5067631;28;20150;-54
2021/01/19 07:51:24;;;;;;;1.15;0.10;;;;;;;;;;5069227;28;20025;-53
2021/01/19 07:53:51;;;;;;;0.98;0.35;;;;;;;;;;5069551;28;20079;-52
2021/01/19 07:56:24;;;;;;;2.58;0.80;;;;;;;;;;5069577;28;20032;-54
2021/01/19 07:58:50;;;;;;;0.10;0.10;;;;;;;;;;5065361;28;20032;-54
2021/01/19 08:01:30;;;;;;;0.15;0.10;;;;;;;;;;5067954;28;20045;-51
2021/01/19 08:04:07;;;;;;;0.10;0.10;;;;;;;;;;5067412;28;20559;-54
2021/01/19 08:06:34;;;;;;;0.10;0.10;;;;;;;;;;5067989;28;20021;-51
2021/01/19 08:09:29;;;;;;;0.50;0.25;;;;;;;;;;5068995;28;20083;-52
2021/01/19 08:12:04;;;;;;;0.20;0.20;;;;;;;;;;5063696;28;20421;-52
2021/01/19 08:14:34;;;;;;;0.65;0.63;;;;;;;;;;5067836;28;20036;-51
2021/01/19 08:17:04;;;;;;;0.98;0.57;;;;;;;;;;5067605;28;20039;-55
2021/01/19 08:19:34;;;;;;;1.00;0.32;;;;;;;;;;5067136;28;20031;-52
2021/01/19 08:22:01;;;;;;;0.10;0.10;;;;;;;;;;5068787;28;20516;-54
2021/01/19 08:24:27;;;;;;;0.10;0.10;;;;;;;;;;5067351;28;20025;-53
2021/01/19 08:26:55;;;;;;;0.40;0.10;;;;;;;;;;5070487;28;20017;-56
2021/01/19 08:29:22;;;;;;;0.10;0.10;;;;;;;;;;5068526;28;20511;-54
2021/01/19 08:31:59;;;;;;;0.05;0.05;;;;;;;;;;5059994;28;20494;-53
2021/01/19 08:34:26;;;;;;;0.10;0.10;;;;;;;;;;5058519;28;20024;-54
2021/01/19 08:36:52;;;;;;;0.10;0.10;;;;;;;;;;5065171;28;20036;-55
2021/01/19 08:39:19;;;;;;;0.10;0.10;;;;;;;;;;5067977;28;20032;-54
2021/01/19 08:41:46;;;;;;;0.10;0.10;;;;;;;;;;5070545;28;20031;-52
2021/01/19 08:44:13;;;;;;;0.20;0.10;;;;;;;;;;5057075;28;20099;-54
2021/01/19 08:46:39;;;;;;;0.40;0.40;;;;;;;;;;5059165;28;20390;-51
2021/01/19 08:49:09;;;;;;;0.10;0.10;;;;;;;;;;5066903;28;20696;-55
2021/01/19 08:51:36;;;;;;;0.00;0.00;;;;;;;;;;5068599;28;20032;-53
2021/01/19 08:54:02;;;;;;;0.10;0.10;;;;;;;;;;5067582;28;20059;-51
2021/01/19 08:56:29;;;;;;;0.10;0.10;;;;;;;;;;5068617;28;20070;-52
2021/01/19 08:58:55;;;;;;;0.00;0.00;;;;;;;;;;5066655;28;20035;-51
2021/01/19 09:01:21;;;;;;;0.08;0.08;;;;;;;;;;5066014;28;20041;-53
2021/01/19 09:03:57;;;;;;;0.00;0.00;;;;;;;;;;5068901;28;20033;-53
2021/01/19 09:06:23;;;;;;;0.73;0.20;;;;;;;;;;5066909;28;20397;-53
2021/01/19 09:08:56;;;;;;;2.28;0.20;;;;;;;;;;5070320;28;20031;-53
2021/01/19 09:11:25;;;;;;;0.10;0.10;;;;;;;;;;5067847;28;20028;-55
2021/01/19 09:13:51;;;;;;;0.10;0.10;;;;;;;;;;5064094;28;20050;-53
2021/01/19 09:16:24;;;;;;;0.10;0.10;;;;;;;;;;5062180;28;20078;-52
2021/01/19 09:18:54;;;;;;;0.22;0.22;;;;;;;;;;5064812;28;20063;-55
2021/01/19 09:21:21;;;;;;;0.10;0.10;;;;;;;;;;5066354;28;20033;-54
2021/01/19 09:23:47;;;;;;;0.05;0.05;;;;;;;;;;5067924;28;20051;-53
2021/01/19 09:26:13;;;;;;;0.10;0.10;;;;;;;;;;5066936;28;20107;-52
2021/01/19 09:28:39;;;;;;;0.47;0.10;;;;;;;;;;5066012;28;20035;-56
2021/01/19 09:31:22;;;;;;;0.00;0.00;;;;;;;;;;5067016;28;20128;-53
2021/01/19 09:33:52;;;;;;;0.10;0.10;;;;;;;;;;5065814;28;20039;-53
2021/01/19 09:36:19;;;;;;;0.00;0.00;;;;;;;;;;5068597;28;20025;-51
2021/01/19 09:38:47;;;;;;;0.10;0.10;;;;;;;;;;5067258;28;20021;-56
2021/01/19 09:41:15;;;;;;;0.10;0.10;;;;;;;;;;5063887;28;20441;-50
2021/01/19 09:43:41;;;;;;;0.10;0.10;;;;;;;;;;5065998;28;20374;-51
2021/01/19 09:46:08;;;;;;;0.10;0.10;;;;;;;;;;5064070;28;20632;-53
2021/01/19 09:48:35;;;;;;;0.00;0.00;;;;;;;;;;5066405;28;20025;-51
2021/01/19 09:51:05;;;;;;;0.10;0.10;;;;;;;;;;5052096;28;20048;-52
2021/01/19 09:53:33;;;;;;;0.10;0.10;;;;;;;;;;5063746;28;20029;-52
2021/01/19 09:56:13;;;;;;;0.13;0.10;;;;;;;;;;5064746;28;20032;-52
2021/01/19 09:58:39;;;;;;;0.10;0.10;;;;;;;;;;5066430;28;20452;-54
2021/01/19 10:01:06;;;;;;;0.10;0.10;;;;;;;;;;5064518;28;20558;-51
2021/01/19 10:03:35;;;;;;;0.10;0.10;;;;;;;;;;5065106;28;20501;-54
2021/01/19 10:06:08;;;;;;;0.10;0.10;;;;;;;;;;5067800;28;20123;-51
2021/01/19 10:08:38;;;;;;;0.10;0.10;;;;;;;;;;5065742;28;20031;-54
2021/01/19 10:11:04;;;;;;;0.20;0.20;;;;;;;;;;5062710;28;20067;-50
2021/01/19 10:13:32;;;;;;;0.10;0.10;;;;;;;;;;5062149;28;20017;-53
2021/01/19 10:15:59;;;;;;;0.35;0.20;;;;;;;;;;5062040;28;20071;-51
2021/01/19 10:18:25;;;;;;;2.05;0.52;;;;;;;;;;5065398;28;20542;-53
2021/01/19 10:20:51;;;;;;;2.67;0.45;;;;;;;;;;5066470;28;20029;-56
2021/01/19 10:23:24;;;;;;;0.10;0.10;;;;;;;;;;5064642;28;20276;-53
2021/01/19 10:25:53;;;;;;;2.08;0.38;;;;;;;;;;5066948;28;20032;-51
2021/01/19 10:28:23;;;;;;;0.55;0.20;;;;;;;;;;5064573;28;20028;-53
2021/01/19 10:30:50;;;;;;;0.28;0.20;;;;;;;;;;5067352;28;20044;-55
2021/01/19 10:33:26;;;;;;;0.10;0.10;;;;;;;;;;5062592;28;20542;-52
2021/01/19 10:35:52;;;;;;;0.17;0.17;;;;;;;;;;5068690;28;20036;-51
2021/01/19 10:38:25;;;;;;;1.00;0.10;;;;;;;;;;5072931;28;20029;-55
2021/01/19 10:40:51;;;;;;;0.20;0.20;;;;;;;;;;5059717;28;20052;-53
2021/01/19 10:43:17;;;;;;;0.10;0.10;;;;;;;;;;5069805;28;20027;-50
2021/01/19 10:45:43;;;;;;;0.10;0.10;;;;;;;;;;5071386;28;20103;-54
2021/01/19 10:48:19;;;;;;;0.95;0.47;;;;;;;;;;5071047;28;20116;-52
2021/01/19 10:50:46;;;;;;;1.45;0.45;;;;;;;;;;5071573;28;20032;-51
2021/01/19 10:53:12;;;;;;;0.10;0.10;;;;;;;;;;5068132;28;20021;-52
2021/01/19 10:55:38;;;;;;;0.38;0.30;;;;;;;;;;5068456;28;20029;-55
2021/01/19 10:58:05;;;;;;;2.47;0.40;;;;;;;;;;5066168;28;20024;-56
2021/01/19 11:00:32;;;;;;;1.00;0.43;;;;;;;;;;5068687;28;20049;-55
2021/01/19 11:02:59;;;;;;;2.08;1.50;;;;;;;;;;5055756;28;20109;-52
2021/01/19 11:05:25;;;;;;;0.10;0.10;;;;;;;;;;5069358;28;20111;-54
2021/01/19 11:07:52;;;;;;;0.20;0.20;;;;;;;;;;5068651;28;20013;-52
2021/01/19 11:10:19;;;;;;;0.20;0.20;;;;;;;;;;5064807;28;20048;-53
2021/01/19 11:12:45;;;;;;;0.20;0.20;;;;;;;;;;5057051;28;20027;-52
2021/01/19 11:15:12;;;;;;;0.60;0.32;;;;;;;;;;5062062;28;20094;-54
2021/01/19 11:17:38;;;;;;;0.55;0.55;;;;;;;;;;5068504;28;20033;-53
2021/01/19 11:20:08;;;;;;;0.10;0.10;;;;;;;;;;5058717;28;20689;-54
2021/01/19 11:22:35;;;;;;;0.10;0.10;;;;;;;;;;5060610;28;20413;-52
2021/01/19 11:25:01;;;;;;;0.45;0.35;;;;;;;;;;5067242;28;20130;-53
2021/01/19 11:27:27;;;;;;;2.28;0.50;;;;;;;;;;5055037;28;20028;-53
2021/01/19 11:29:54;;;;;;;0.20;0.20;;;;;;;;;;5055326;28;20037;-53
2021/01/19 11:32:20;;;;;;;2.33;1.27;;;;;;;;;;5068335;28;20032;-56
2021/01/19 11:34:46;;;;;;;1.48;0.98;;;;;;;;;;5060894;28;20036;-56
2021/01/19 11:37:13;;;;;;;0.65;0.65;;;;;;;;;;5057297;28;20095;-53
2021/01/19 11:39:40;;;;;;;0.45;0.40;;;;;;;;;;5067323;28;20040;-51
2021/01/19 11:42:06;;;;;;;0.85;0.50;;;;;;;;;;5068380;28;20444;-53
2021/01/19 11:44:32;;;;;;;0.90;0.55;;;;;;;;;;5067938;28;20078;-52
2021/01/19 11:46:58;;;;;;;0.70;0.57;;;;;;;;;;5067911;28;20032;-53
2021/01/19 11:49:24;;;;;;;1.20;0.90;;;;;;;;;;5064800;28;20029;-52
2021/01/19 11:51:51;;;;;;;0.50;0.50;;;;;;;;;;5057323;28;20028;-54
2021/01/19 11:54:17;;;;;;;4.60;1.33;;;;;;;;;;5052450;28;20021;-56
2021/01/19 11:56:44;;;;;;;3.10;1.40;;;;;;;;;;5056476;28;20127;-51
2021/01/19 11:59:12;;;;;;;1.30;1.20;;;;;;;;;;5064182;28;20480;-55
2021/01/19 12:01:39;;;;;;;2.75;1.15;;;;;;;;;;5064049;28;20052;-55
2021/01/19 12:04:06;;;;;;;0.95;0.82;;;;;;;;;;5068994;28;20024;-54
2021/01/19 12:06:33;;;;;;;2.13;0.95;;;;;;;;;;5069429;28;20025;-56
2021/01/19 12:08:59;;;;;;;1.35;0.95;;;;;;;;;;5065236;28;20031;-55
2021/01/19 12:11:25;;;;;;;1.85;1.73;;;;;;;;;;5056450;28;20079;-54
2021/01/19 12:13:51;;;;;;;1.02;0.95;;;;;;;;;;5062016;28;20051;-54
2021/01/19 12:16:21;;;;;;;1.85;0.93;;;;;;;;;;5068634;28;20101;-53
2021/01/19 12:18:49;;;;;;;1.02;0.88;;;;;;;;;;5069027;28;20528;-53
2021/01/19 12:21:15;;;;;;;2.17;1.17;;;;;;;;;;5066979;28;20512;-55
2021/01/19 12:23:41;;;;;;;1.98;1.75;;;;;;;;;;5068779;28;20065;-55
2021/01/19 12:26:08;;;;;;;5.38;0.45;;;;;;;;;;5064340;28;20032;-53
2021/01/19 12:28:34;;;;;;;21.33;1.70;;;;;;;;;;5066758;28;20505;-56
2021/01/19 12:31:00;;;;;;;1.92;1.05;;;;;;;;;;5068455;28;20040;-53
2021/01/19 12:33:26;;;;;;;2.30;1.20;;;;;;;;;;5068469;28;20027;-52
2021/01/19 12:35:52;;;;;;;2.28;1.17;;;;;;;;;;5064494;28;20031;-55
2021/01/19 12:38:19;;;;;;;1.95;1.10;;;;;;;;;;5066916;28;20021;-51
2021/01/19 12:40:45;;;;;;;1.25;1.13;;;;;;;;;;5066097;28;20037;-54
2021/01/19 12:43:12;;;;;;;2.58;1.25;;;;;;;;;;5065858;28;20095;-51
2021/01/19 12:45:39;;;;;;;2.58;1.83;;;;;;;;;;5068387;28;20062;-52
2021/01/19 12:48:06;;;;;;;1.00;0.90;;;;;;;;;;5066254;28;20039;-52
2021/01/19 12:50:35;;;;;;;4.80;1.98;;;;;;;;;;5069915;28;20025;-53
2021/01/19 12:53:02;;;;;;;10.40;2.00;;;;;;;;;;5065622;28;20025;-55
2021/01/19 12:55:28;;;;;;;0.88;0.65;;;;;;;;;;5066464;28;20107;-51
2021/01/19 12:57:54;;;;;;;4.05;1.92;;;;;;;;;;5066835;28;20082;-55
2021/01/19 13:00:20;;;;;;;0.52;0.45;;;;;;;;;;5067116;28;20040;-52
2021/01/19 13:02:47;;;;;;;2.92;1.17;;;;;;;;;;5068245;28;20500;-53
2021/01/19 13:05:13;;;;;;;1.45;1.10;;;;;;;;;;5064469;28;20074;-53
2021/01/19 13:07:40;;;;;;;4.57;3.30;;;;;;;;;;5065220;28;20036;-53
2021/01/19 13:10:06;;;;;;;4.00;1.70;;;;;;;;;;5065622;28;20044;-56
2021/01/19 13:12:32;;;;;;;4.75;1.80;;;;;;;;;;5068529;28;20477;-51
2021/01/19 13:14:59;;;;;;;0.73;0.47;;;;;;;;;;5067057;28;20040;-53
2021/01/19 13:17:25;;;;;;;3.70;2.80;;;;;;;;;;5067818;28;20024;-54
2021/01/19 13:19:51;;;;;;;2.53;1.85;;;;;;;;;;5066027;28;20056;-51
2021/01/19 13:22:17;;;;;;;12.05;2.33;;;;;;;;;;5068511;28;20031;-54
2021/01/19 13:24:44;;;;;;;1.38;1.00;;;;;;;;;;5068391;28;20441;-54
2021/01/19 13:27:10;;;;;;;2.25;1.65;;;;;;;;;;5066035;28;20028;-54
2021/01/19 13:29:36;;;;;;;4.15;2.17;;;;;;;;;;5067556;28;20032;-51
2021/01/19 13:32:03;;;;;;;0.10;0.10;;;;;;;;;;5065113;28;20067;-54
2021/01/19 13:34:29;;;;;;;3.60;3.20;;;;;;;;;;5066929;28;20393;-51
2021/01/19 13:36:55;;;;;;;4.00;2.53;;;;;;;;;;5064191;28;20024;-55
2021/01/19 13:39:22;;;;;;;1.58;1.02;;;;;;;;;;5066442;28;20470;-51
2021/01/19 13:41:55;;;;;;;3.38;0.82;;;;;;;;;;5066743;28;20678;-58
2021/01/19 13:44:22;;;;;;;3.90;2.08;;;;;;;;;;5066706;28;20070;-58
2021/01/19 13:46:48;;;;;;;1.50;1.08;;;;;;;;;;5065642;28;20028;-58
2021/01/19 13:49:15;;;;;;;5.53;1.98;;;;;;;;;;5065655;28;20071;-57
2021/01/19 13:51:41;;;;;;;1.95;0.70;;;;;;;;;;5067912;28;20039;-58
2021/01/19 13:54:07;;;;;;;4.40;1.40;;;;;;;;;;5065812;28;20067;-58
2021/01/19 13:56:33;;;;;;;1.95;1.02;;;;;;;;;;5066243;28;20032;-58
2021/01/19 13:58:59;;;;;;;5.72;1.60;;;;;;;;;;5065188;28;20052;-52
2021/01/19 14:01:27;;;;;;;1.20;0.98;;;;;;;;;;5067374;28;20177;-55
2021/01/19 14:03:53;;;;;;;5.72;1.52;;;;;;;;;;5067660;28;20020;-54
2021/01/19 14:06:20;;;;;;;5.30;1.67;;;;;;;;;;5063581;28;20044;-70
2021/01/19 14:08:46;;;;;;;0.30;0.30;;;;;;;;;;5068692;28;20055;-71
2021/01/19 14:11:12;;;;;;;0.63;0.50;;;;;;;;;;5066532;28;20040;-76
2021/01/19 14:13:38;;;;;;;4.50;1.75;;;;;;;;;;5068740;28;20028;-73
2021/01/19 14:16:04;;;;;;;0.40;0.40;;;;;;;;;;5066876;28;20036;-62
2021/01/19 14:18:31;;;;;;;8.23;2.35;;;;;;;;;;5068745;28;20020;-59
2021/01/19 14:20:57;;;;;;;1.80;1.02;;;;;;;;;;5055458;28;20021;-58
2021/01/19 14:23:23;;;;;;;8.63;1.65;;;;;;;;;;5068265;28;20370;-58
2021/01/19 14:25:49;;;;;;;5.45;1.88;;;;;;;;;;5067334;28;20020;-58
2021/01/19 14:28:16;;;;;;;3.05;2.22;;;;;;;;;;5067674;28;20017;-59
2021/01/19 14:30:42;;;;;;;5.18;2.13;;;;;;;;;;5070151;28;20043;-59
2021/01/19 14:33:08;;;;;;;1.45;0.70;;;;;;;;;;5055049;28;20065;-58
2021/01/19 14:35:34;;;;;;;0.63;0.50;;;;;;;;;;5071987;28;20024;-58
2021/01/19 14:38:00;;;;;;;3.10;0.75;;;;;;;;;;5070255;28;20020;-64
2021/01/19 14:40:26;;;;;;;2.17;0.90;;;;;;;;;;5065582;28;20029;-66
2021/01/19 14:42:56;;;;;;;3.97;1.10;;;;;;;;;;5055991;28;20024;-73
2021/01/19 14:45:22;;;;;;;1.63;0.98;;;;;;;;;;5070013;28;20035;-64
2021/01/19 14:47:49;;;;;;;1.55;0.98;;;;;;;;;;5057576;28;20106;-69
2021/01/19 14:50:15;;;;;;;3.50;1.25;;;;;;;;;;5067724;28;20498;-67
2021/01/19 14:52:45;;;;;;;7.47;2.53;;;;;;;;;;5063244;28;20029;-62
2021/01/19 14:55:12;;;;;;;1.45;0.82;;;;;;;;;;5065972;28;20090;-65
2021/01/19 14:57:44;;;;;;;1.40;1.13;;;;;;;;;;5069064;28;20399;-65
2021/01/19 15:00:11;;;;;;;3.85;1.10;;;;;;;;;;5069557;28;20464;-63
2021/01/19 15:02:37;;;;;;;0.88;0.85;;;;;;;;;;5057914;28;20029;-72
2021/01/19 15:05:04;;;;;;;1.58;1.48;;;;;;;;;;5068564;28;20016;-58
2021/01/19 15:07:31;;;;;;;2.13;1.25;;;;;;;;;;5070310;28;20023;-58
2021/01/19 15:09:57;;;;;;;1.42;0.93;;;;;;;;;;5067327;28;20146;-59
2021/01/19 15:12:27;;;;;;;4.85;1.45;;;;;;;;;;5071038;28;20085;-69
2021/01/19 15:14:53;;;;;;;1.85;1.23;;;;;;;;;;5071953;28;20028;-52
2021/01/19 15:17:20;;;;;;;2.58;1.48;;;;;;;;;;5058490;28;20029;-52
2021/01/19 15:19:47;;;;;;;2.45;0.82;;;;;;;;;;5060644;28;20020;-54
2021/01/19 15:22:13;;;;;;;9.50;3.20;;;;;;;;;;5064016;28;20052;-52
2021/01/19 15:24:39;;;;;;;2.30;1.40;;;;;;;;;;5058516;28;20098;-51
2021/01/19 15:27:08;;;;;;;6.60;1.33;;;;;;;;;;5053655;28;20375;-51
2021/01/19 15:29:35;;;;;;;4.82;2.25;;;;;;;;;;5067141;28;20511;-51
2021/01/19 15:32:01;;;;;;;3.70;1.58;;;;;;;;;;5058726;28;20528;-54
2021/01/19 15:34:28;;;;;;;8.82;2.15;;;;;;;;;;5059489;28;20028;-54
2021/01/19 15:36:58;;;;;;;0.45;0.45;;;;;;;;;;5065699;28;20029;-53
2021/01/19 15:39:24;;;;;;;1.10;0.90;;;;;;;;;;5068909;28;20040;-55
2021/01/19 15:41:50;;;;;;;4.85;1.48;;;;;;;;;;5072488;28;20103;-51
2021/01/19 15:44:17;;;;;;;1.50;0.90;;;;;;;;;;5058274;28;20025;-52
2021/01/19 15:46:43;;;;;;;9.45;1.75;;;;;;;;;;5056948;28;20120;-53
2021/01/19 15:49:09;;;;;;;1.80;1.15;;;;;;;;;;5063693;28;20029;-52
2021/01/19 15:51:36;;;;;;;1.38;0.52;;;;;;;;;;5068648;28;20040;-52
2021/01/19 15:54:02;;;;;;;2.90;1.80;;;;;;;;;;5067861;28;20387;-54
2021/01/19 15:56:32;;;;;;;3.28;2.67;;;;;;;;;;5057149;28;20090;-54
2021/01/19 15:58:59;;;;;;;2.10;0.88;;;;;;;;;;5058837;28;20397;-51
2021/01/19 16:01:26;;;;;;;3.70;1.98;;;;;;;;;;5058140;28;20509;-51
2021/01/19 16:03:52;;;;;;;0.20;0.20;;;;;;;;;;5061609;28;20032;-54
2021/01/19 16:06:19;;;;;;;4.78;2.00;;;;;;;;;;5064638;28;20386;-51
2021/01/19 16:08:45;;;;;;;2.88;2.38;;;;;;;;;;5066837;28;20631;-54
2021/01/19 16:11:11;;;;;;;1.83;0.55;;;;;;;;;;5066223;28;20086;-51
2021/01/19 16:13:39;;;;;;;2.00;1.38;;;;;;;;;;5065166;28;20085;-53
2021/01/19 16:16:08;;;;;;;1.83;1.30;;;;;;;;;;5064432;28;20698;-53
2021/01/19 16:18:35;;;;;;;3.72;1.55;;;;;;;;;;5068099;28;20050;-51
2021/01/19 16:21:02;;;;;;;3.50;0.73;;;;;;;;;;5067409;28;20031;-60
2021/01/19 16:23:28;;;;;;;3.13;1.70;;;;;;;;;;5066581;28;20042;-60
2021/01/19 16:25:56;;;;;;;11.23;3.33;;;;;;;;;;5066778;28;20513;-60
2021/01/19 16:28:22;;;;;;;10.90;4.22;;;;;;;;;;5062532;28;20025;-63
2021/01/19 16:30:49;;;;;;;10.82;2.45;;;;;;;;;;5067514;28;20505;-61
2021/01/19 16:33:16;;;;;;;7.00;2.65;;;;;;;;;;5067730;28;20428;-52
2021/01/19 16:35:42;;;;;;;1.42;1.23;;;;;;;;;;5067810;28;20032;-50
2021/01/19 16:38:11;;;;;;;5.13;3.35;;;;;;;;;;5067907;28;20028;-53
2021/01/19 16:40:37;;;;;;;3.20;2.97;;;;;;;;;;5066225;28;20116;-52
2021/01/19 16:43:03;;;;;;;21.92;5.63;;;;;;;;;;5067420;28;20020;-51
2021/01/19 16:45:29;;;;;;;4.82;2.50;;;;;;;;;;5064671;28;20077;-51
2021/01/19 16:47:55;;;;;;;9.57;4.00;;;;;;;;;;5063106;28;20020;-51
2021/01/19 16:50:25;;;;;;;5.82;2.55;;;;;;;;;;5067599;28;20040;-57
2021/01/19 16:52:51;;;;;;;1.92;1.27;;;;;;;;;;5067097;28;20426;-52
2021/01/19 16:55:17;;;;;;;1.20;0.65;;;;;;;;;;5066932;28;20032;-53
2021/01/19 16:57:44;;;;;;;3.85;2.15;;;;;;;;;;5067409;28;20016;-52
2021/01/19 17:00:10;;;;;;;2.63;2.08;;;;;;;;;;5066914;28;20051;-52
2021/01/19 17:02:36;;;;;;;2.40;1.80;;;;;;;;;;5068794;28;20029;-54
2021/01/19 17:05:03;;;;;;;0.80;0.80;;;;;;;;;;5067031;28;20032;-55
2021/01/19 17:07:29;;;;;;;8.35;2.13;;;;;;;;;;5066810;28;20056;-51
2021/01/19 17:09:57;;;;;;;2.05;1.63;;;;;;;;;;5062210;28;20069;-54
2021/01/19 17:12:23;;;;;;;5.45;1.70;;;;;;;;;;5058622;28;20040;-52
2021/01/19 17:14:51;;;;;;;5.40;3.42;;;;;;;;;;5049693;28;20552;-54
2021/01/19 17:17:17;;;;;;;5.30;2.47;;;;;;;;;;5049886;28;20029;-54
2021/01/19 17:19:47;;;;;;;5.00;2.15;;;;;;;;;;5050512;28;20031;-51
2021/01/19 17:22:13;;;;;;;4.05;2.15;;;;;;;;;;5057435;28;20036;-52
2021/01/19 17:24:43;;;;;;;8.32;4.32;;;;;;;;;;5055245;28;20052;-54
2021/01/19 17:27:09;;;;;;;1.80;1.52;;;;;;;;;;5061817;28;20067;-55
2021/01/19 17:29:35;;;;;;;6.97;2.30;;;;;;;;;;5066966;28;20047;-51
2021/01/19 17:32:01;;;;;;;5.53;1.98;;;;;;;;;;5058929;28;20481;-52
2021/01/19 17:34:29;;;;;;;4.03;1.00;;;;;;;;;;5051689;28;20017;-54
2021/01/19 17:36:59;;;;;;;2.08;1.27;;;;;;;;;;5051365;28;20440;-52
2021/01/19 17:39:30;;;;;;;4.35;2.70;;;;;;;;;;5055844;28;20027;-52
2021/01/19 17:42:03;;;;;;;5.97;2.03;;;;;;;;;;5064175;28;20109;-55
2021/01/19 17:44:32;;;;;;;3.92;2.10;;;;;;;;;;5061376;28;20508;-53
2021/01/19 17:46:58;;;;;;;0.50;0.50;;;;;;;;;;5061099;28;20044;-53
2021/01/19 17:49:27;;;;;;;5.75;1.35;;;;;;;;;;5060815;28;20101;-52
2021/01/19 17:52:19;;;;;;;1.80;1.30;;;;;;;;;;5062658;28;20052;-55
2021/01/19 17:54:48;;;;;;;1.05;0.70;;;;;;;;;;5062288;28;20932;-52
2021/01/19 17:57:17;;;;;;;1.58;1.42;;;;;;;;;;5050100;28;20032;-52
2021/01/19 17:59:50;;;;;;;1.95;1.35;;;;;;;;;;5063593;28;20524;-51
2021/01/19 18:02:18;;;;;;;0.63;0.55;;;;;;;;;;5051951;28;20031;-54
2021/01/19 18:04:47;;;;;;;3.15;1.98;;;;;;;;;;5051436;28;20029;-54
2021/01/19 18:07:13;;;;;;;2.00;1.20;;;;;;;;;;5054391;28;20156;-54
2021/01/19 18:10:05;;;;;;;1.15;0.90;;;;;;;;;;5054491;28;20051;-53
2021/01/19 18:12:34;;;;;;;0.68;0.45;;;;;;;;;;5050615;28;20607;-51
2021/01/19 18:15:03;;;;;;;3.70;2.05;;;;;;;;;;5064248;28;20024;-53
2021/01/19 18:17:31;;;;;;;1.27;0.88;;;;;;;;;;5065040;28;20564;-53
2021/01/19 18:20:01;;;;;;;1.95;1.75;;;;;;;;;;5061811;28;20017;-55
2021/01/19 18:22:29;;;;;;;12.07;1.27;;;;;;;;;;5063660;28;20021;-54
2021/01/19 18:24:55;;;;;;;2.33;1.60;;;;;;;;;;5065613;28;20039;-54
2021/01/19 18:27:24;;;;;;;1.63;1.00;;;;;;;;;;5063969;28;20044;-53
2021/01/19 18:29:50;;;;;;;2.15;1.38;;;;;;;;;;5067129;28;20509;-55
2021/01/19 18:32:19;;;;;;;1.55;1.30;;;;;;;;;;5066975;28;20025;-54
2021/01/19 18:34:45;;;;;;;1.00;0.60;;;;;;;;;;5065708;28;20100;-55
2021/01/19 18:37:14;;;;;;;1.25;0.80;;;;;;;;;;5064718;28;20024;-53
2021/01/19 18:39:45;;;;;;;1.55;0.40;;;;;;;;;;5053529;28;20025;-54
2021/01/19 18:42:17;;;;;;;0.70;0.70;;;;;;;;;;5064627;28;20029;-55
2021/01/19 18:44:46;;;;;;;1.17;0.90;;;;;;;;;;5060855;28;20025;-54
2021/01/19 18:47:14;;;;;;;1.15;1.05;;;;;;;;;;5063847;28;20041;-55
2021/01/19 18:49:43;;;;;;;2.28;1.20;;;;;;;;;;5058077;28;20039;-52
2021/01/19 18:52:10;;;;;;;1.52;1.30;;;;;;;;;;5053575;28;20017;-53
2021/01/19 18:54:38;;;;;;;6.05;1.20;;;;;;;;;;5066461;28;20112;-53
2021/01/19 18:57:07;;;;;;;1.25;0.50;;;;;;;;;;5056846;28;20035;-55
2021/01/19 18:59:33;;;;;;;1.88;1.08;;;;;;;;;;5062340;28;21135;-55
2021/01/19 19:02:05;;;;;;;0.47;0.47;;;;;;;;;;5064129;28;20472;-55
2021/01/19 19:04:33;;;;;;;4.60;1.25;;;;;;;;;;5066474;28;20489;-55
2021/01/19 19:07:03;;;;;;;1.13;0.63;;;;;;;;;;5070911;28;20024;-54
2021/01/19 19:09:32;;;;;;;0.30;0.30;;;;;;;;;;5070446;28;20112;-55
2021/01/19 19:12:01;;;;;;;1.83;1.08;;;;;;;;;;5066798;28;20030;-53
2021/01/19 19:14:27;;;;;;;1.85;0.85;;;;;;;;;;5071478;28;20029;-52
2021/01/19 19:16:58;;;;;;;0.43;0.40;;;;;;;;;;5070626;28;20020;-52
2021/01/19 19:19:27;;;;;;;1.10;0.75;;;;;;;;;;5066952;28;20469;-53
2021/01/19 19:21:58;;;;;;;1.08;0.70;;;;;;;;;;5069900;28;20070;-52
2021/01/19 19:24:24;;;;;;;0.28;0.28;;;;;;;;;;5066651;28;20020;-55
2021/01/19 19:26:53;;;;;;;1.77;1.00;;;;;;;;;;5056476;28;20033;-52
2021/01/19 19:29:22;;;;;;;1.63;1.23;;;;;;;;;;5070048;28;20033;-53
2021/01/19 19:31:53;;;;;;;0.13;0.13;;;;;;;;;;5067543;28;20042;-53
2021/01/19 19:34:19;;;;;;;5.05;0.68;;;;;;;;;;5066734;28;20103;-57
2021/01/19 19:36:48;;;;;;;1.13;0.65;;;;;;;;;;5069417;28;20039;-58
2021/01/19 19:39:17;;;;;;;1.27;0.90;;;;;;;;;;5068844;28;20063;-55
2021/01/19 19:41:44;;;;;;;0.10;0.10;;;;;;;;;;5070322;28;20025;-56
2021/01/19 19:44:13;;;;;;;1.65;0.77;;;;;;;;;;5068825;28;20039;-54
2021/01/19 19:46:42;;;;;;;1.13;0.63;;;;;;;;;;5066970;28;20179;-55
2021/01/19 19:49:09;;;;;;;1.02;0.70;;;;;;;;;;5067261;28;20032;-57
2021/01/19 19:51:37;;;;;;;2.38;1.58;;;;;;;;;;5067612;28;20041;-57
2021/01/19 19:54:05;;;;;;;0.00;0.00;;;;;;;;;;5068884;28;20062;-57
2021/01/19 19:56:36;;;;;;;0.35;0.35;;;;;;;;;;5068543;28;20036;-56
2021/01/19 19:59:02;;;;;;;0.70;0.55;;;;;;;;;;5067275;28;20154;-56
2021/01/19 20:01:33;;;;;;;1.50;0.70;;;;;;;;;;5066174;28;20101;-56
2021/01/19 20:03:59;;;;;;;1.95;0.90;;;;;;;;;;5066922;28;20028;-56
2021/01/19 20:06:29;;;;;;;1.45;1.10;;;;;;;;;;5066361;28;20052;-56
2021/01/19 20:08:58;;;;;;;1.50;0.85;;;;;;;;;;5048619;28;20033;-53
2021/01/19 20:11:25;;;;;;;1.33;1.08;;;;;;;;;;5067362;28;20044;-52
2021/01/19 20:13:53;;;;;;;1.05;0.43;;;;;;;;;;5064067;28;20052;-53
2021/01/19 20:16:22;;;;;;;0.25;0.25;;;;;;;;;;5066409;28;20406;-53
2021/01/19 20:18:48;;;;;;;0.20;0.20;;;;;;;;;;5065437;28;20036;-57
2021/01/19 20:21:17;;;;;;;0.30;0.22;;;;;;;;;;5067553;28;20036;-54
2021/01/19 20:23:43;;;;;;;0.55;0.55;;;;;;;;;;5069251;28;20555;-54
2021/01/19 20:26:16;;;;;;;0.13;0.13;;;;;;;;;;5065791;28;20059;-56
2021/01/19 20:28:48;;;;;;;1.30;0.52;;;;;;;;;;5065288;28;20043;-56
2021/01/19 20:31:14;;;;;;;0.10;0.10;;;;;;;;;;5065881;28;20107;-58
2021/01/19 20:33:43;;;;;;;0.00;0.00;;;;;;;;;;5065141;28;20086;-54
2021/01/19 20:36:09;;;;;;;0.60;0.60;;;;;;;;;;5066958;28;20521;-57
2021/01/19 20:38:38;;;;;;;0.70;0.65;;;;;;;;;;5067742;28;20074;-56
2021/01/19 20:41:08;;;;;;;0.43;0.40;;;;;;;;;;5065813;28;20028;-53
2021/01/19 20:43:35;;;;;;;0.40;0.40;;;;;;;;;;5065427;28;20024;-53
2021/01/19 20:46:05;;;;;;;5.35;1.45;;;;;;;;;;5064057;28;20048;-56
2021/01/19 20:48:34;;;;;;;1.38;0.75;;;;;;;;;;5065364;28;20029;-54